sensor_id;sensor_type;location;lat;lon;timestamp;pressure;altitude;pressure_sealevel;temperature;humidity
72118;BME280;59992;47.490;8.736;2023-10-09T00:02:13;97387.48;;;10.71;98.74
72118;BME280;59992;47.490;8.736;2023-10-09T00:05:04;97382.77;;;10.68;98.09
72118;BME280;59992;47.490;8.736;2023-10-09T00:08:00;97390.78;;;10.67;99.24
72118;BME280;59992;47.490;8.736;2023-10-09T00:10:52;97393.73;;;10.64;99.24
72118;BME280;59992;47.490;8.736;2023-10-09T00:13:43;97393.23;;;10.62;98.42
72118;BME280;59992;47.490;8.736;2023-10-09T00:16:41;97395.81;;;10.60;97.41
72118;BME280;59992;47.490;8.736;2023-10-09T00:19:36;97395.34;;;10.57;96.89
72118;BME280;59992;47.490;8.736;2023-10-09T00:22:26;97392.49;;;10.54;96.39
72118;BME280;59992;47.490;8.736;2023-10-09T00:25:17;97395.37;;;10.52;97.60
72118;BME280;59992;47.490;8.736;2023-10-09T00:28:12;97393.63;;;10.49;99.77
72118;BME280;59992;47.490;8.736;2023-10-09T00:31:04;97393.09;;;10.48;100.00
72118;BME280;59992;47.490;8.736;2023-10-09T00:33:56;97395.90;;;10.46;100.00
72118;BME280;59992;47.490;8.736;2023-10-09T00:36:52;97396.28;;;10.44;100.00
72118;BME280;59992;47.490;8.736;2023-10-09T00:39:43;97397.67;;;10.42;99.92
72118;BME280;59992;47.490;8.736;2023-10-09T00:42:37;97393.71;;;10.40;99.67
72118;BME280;59992;47.490;8.736;2023-10-09T00:45:28;97393.14;;;10.40;99.86
72118;BME280;59992;47.490;8.736;2023-10-09T00:48:21;97383.23;;;10.32;99.78
72118;BME280;59992;47.490;8.736;2023-10-09T00:51:20;97389.13;;;10.36;99.36
72118;BME280;59992;47.490;8.736;2023-10-09T00:54:13;97391.41;;;10.34;97.78
72118;BME280;59992;47.490;8.736;2023-10-09T00:57:04;97385.69;;;10.29;99.32
72118;BME280;59992;47.490;8.736;2023-10-09T00:59:56;97385.70;;;10.27;99.35
72118;BME280;59992;47.490;8.736;2023-10-09T01:03:05;97376.14;;;10.27;99.64
72118;BME280;59992;47.490;8.736;2023-10-09T01:06:08;97374.02;;;10.24;99.74
72118;BME280;59992;47.490;8.736;2023-10-09T01:09:12;97369.42;;;10.22;99.62
72118;BME280;59992;47.490;8.736;2023-10-09T01:12:07;97368.23;;;10.20;99.20
72118;BME280;59992;47.490;8.736;2023-10-09T01:15:08;97369.02;;;10.19;99.87
72118;BME280;59992;47.490;8.736;2023-10-09T01:18:06;97369.89;;;10.20;99.99
72118;BME280;59992;47.490;8.736;2023-10-09T01:20:57;97370.16;;;10.19;100.00
72118;BME280;59992;47.490;8.736;2023-10-09T01:23:47;97367.88;;;10.19;99.99
72118;BME280;59992;47.490;8.736;2023-10-09T01:26:53;97368.17;;;10.18;99.14
72118;BME280;59992;47.490;8.736;2023-10-09T01:29:46;97365.36;;;10.17;99.40
72118;BME280;59992;47.490;8.736;2023-10-09T01:32:36;97358.19;;;10.15;98.55
72118;BME280;59992;47.490;8.736;2023-10-09T01:35:26;97359.66;;;10.14;98.21
72118;BME280;59992;47.490;8.736;2023-10-09T01:38:19;97360.79;;;10.11;98.87
72118;BME280;59992;47.490;8.736;2023-10-09T01:41:19;97356.95;;;10.10;98.96
72118;BME280;59992;47.490;8.736;2023-10-09T01:44:09;97352.19;;;10.07;99.38
72118;BME280;59992;47.490;8.736;2023-10-09T01:47:01;97344.86;;;10.05;99.80
72118;BME280;59992;47.490;8.736;2023-10-09T01:49:56;97344.77;;;10.04;99.35
72118;BME280;59992;47.490;8.736;2023-10-09T01:52:47;97343.55;;;10.01;99.45
72118;BME280;59992;47.490;8.736;2023-10-09T01:55:37;97344.37;;;10.01;100.00
72118;BME280;59992;47.490;8.736;2023-10-09T01:58:28;97341.92;;;10.00;99.96
72118;BME280;59992;47.490;8.736;2023-10-09T02:01:21;97342.73;;;9.98;99.96
72118;BME280;59992;47.490;8.736;2023-10-09T02:04:11;97338.35;;;9.96;99.76
72118;BME280;59992;47.490;8.736;2023-10-09T02:07:06;97336.27;;;9.95;100.00
72118;BME280;59992;47.490;8.736;2023-10-09T02:09:57;97335.94;;;9.94;100.00
72118;BME280;59992;47.490;8.736;2023-10-09T02:12:48;97328.15;;;9.91;99.57
72118;BME280;59992;47.490;8.736;2023-10-09T02:15:42;97326.25;;;9.89;99.71
72118;BME280;59992;47.490;8.736;2023-10-09T02:18:44;97326.50;;;9.87;99.96
72118;BME280;59992;47.490;8.736;2023-10-09T02:21:43;97322.20;;;9.85;100.00
72118;BME280;59992;47.490;8.736;2023-10-09T02:24:34;97321.78;;;9.83;100.00
72118;BME280;59992;47.490;8.736;2023-10-09T02:27:40;97322.06;;;9.82;100.00
72118;BME280;59992;47.490;8.736;2023-10-09T02:30:36;97325.12;;;9.83;100.00
72118;BME280;59992;47.490;8.736;2023-10-09T02:33:30;97322.63;;;9.83;100.00
72118;BME280;59992;47.490;8.736;2023-10-09T02:36:21;97325.20;;;9.84;100.00
72118;BME280;59992;47.490;8.736;2023-10-09T02:39:12;97327.86;;;9.84;99.91
72118;BME280;59992;47.490;8.736;2023-10-09T02:42:11;97333.59;;;9.83;100.00
72118;BME280;59992;47.490;8.736;2023-10-09T02:45:13;97332.14;;;9.83;100.00
72118;BME280;59992;47.490;8.736;2023-10-09T02:48:13;97332.15;;;9.83;100.00
72118;BME280;59992;47.490;8.736;2023-10-09T02:51:04;97329.56;;;9.82;99.86
72118;BME280;59992;47.490;8.736;2023-10-09T02:53:55;97327.66;;;9.82;99.87
72118;BME280;59992;47.490;8.736;2023-10-09T02:56:46;97326.55;;;9.83;99.46
72118;BME280;59992;47.490;8.736;2023-10-09T02:59:44;97318.23;;;9.83;99.67
72118;BME280;59992;47.490;8.736;2023-10-09T03:02:35;97316.00;;;9.85;100.00
72118;BME280;59992;47.490;8.736;2023-10-09T03:05:28;97317.61;;;9.85;100.00
72118;BME280;59992;47.490;8.736;2023-10-09T03:08:19;97319.48;;;9.85;99.76
72118;BME280;59992;47.490;8.736;2023-10-09T03:11:09;97322.17;;;9.84;99.59
72118;BME280;59992;47.490;8.736;2023-10-09T03:14:02;97319.84;;;9.81;100.00
72118;BME280;59992;47.490;8.736;2023-10-09T03:16:53;97321.27;;;9.81;100.00
72118;BME280;59992;47.490;8.736;2023-10-09T03:19:45;97319.84;;;9.82;100.00
72118;BME280;59992;47.490;8.736;2023-10-09T03:22:36;97316.20;;;9.81;100.00
72118;BME280;59992;47.490;8.736;2023-10-09T03:25:26;97318.52;;;9.80;100.00
72118;BME280;59992;47.490;8.736;2023-10-09T03:28:17;97320.51;;;9.78;100.00
72118;BME280;59992;47.490;8.736;2023-10-09T03:31:07;97320.88;;;9.75;100.00
72118;BME280;59992;47.490;8.736;2023-10-09T03:33:58;97316.20;;;9.73;100.00
72118;BME280;59992;47.490;8.736;2023-10-09T03:36:49;97315.48;;;9.72;100.00
72118;BME280;59992;47.490;8.736;2023-10-09T03:39:48;97312.70;;;9.69;100.00
72118;BME280;59992;47.490;8.736;2023-10-09T03:42:43;97305.17;;;9.63;100.00
72118;BME280;59992;47.490;8.736;2023-10-09T03:45:33;97310.63;;;9.66;100.00
72118;BME280;59992;47.490;8.736;2023-10-09T03:48:24;97310.08;;;9.65;100.00
72118;BME280;59992;47.490;8.736;2023-10-09T03:51:21;97313.90;;;9.64;100.00
72118;BME280;59992;47.490;8.736;2023-10-09T03:54:11;97311.52;;;9.63;100.00
72118;BME280;59992;47.490;8.736;2023-10-09T03:57:02;97306.42;;;9.61;100.00
72118;BME280;59992;47.490;8.736;2023-10-09T03:59:52;97306.48;;;9.61;99.88
72118;BME280;59992;47.490;8.736;2023-10-09T04:02:44;97305.21;;;9.59;99.54
72118;BME280;59992;47.490;8.736;2023-10-09T04:05:35;97304.63;;;9.57;100.00
72118;BME280;59992;47.490;8.736;2023-10-09T04:08:26;97303.45;;;9.56;100.00
72118;BME280;59992;47.490;8.736;2023-10-09T04:11:19;97305.73;;;9.53;100.00
72118;BME280;59992;47.490;8.736;2023-10-09T04:14:11;97309.64;;;9.52;100.00
72118;BME280;59992;47.490;8.736;2023-10-09T04:17:13;97304.56;;;9.52;100.00
72118;BME280;59992;47.490;8.736;2023-10-09T04:20:21;97298.90;;;9.52;100.00
72118;BME280;59992;47.490;8.736;2023-10-09T04:23:57;97302.67;;;9.52;100.00
72118;BME280;59992;47.490;8.736;2023-10-09T04:26:58;97306.53;;;9.50;100.00
72118;BME280;59992;47.490;8.736;2023-10-09T04:29:51;97306.11;;;9.46;100.00
72118;BME280;59992;47.490;8.736;2023-10-09T04:32:43;97306.22;;;9.44;100.00
72118;BME280;59992;47.490;8.736;2023-10-09T04:35:34;97304.80;;;9.42;100.00
72118;BME280;59992;47.490;8.736;2023-10-09T04:38:26;97303.04;;;9.42;100.00
72118;BME280;59992;47.490;8.736;2023-10-09T04:41:23;97299.86;;;9.42;99.96
72118;BME280;59992;47.490;8.736;2023-10-09T04:44:22;97305.98;;;9.39;100.00
72118;BME280;59992;47.490;8.736;2023-10-09T04:47:25;97306.91;;;9.37;100.00
72118;BME280;59992;47.490;8.736;2023-10-09T04:50:25;97311.02;;;9.35;100.00
72118;BME280;59992;47.490;8.736;2023-10-09T04:53:33;97312.02;;;9.33;100.00
72118;BME280;59992;47.490;8.736;2023-10-09T04:56:33;97311.95;;;9.33;100.00
72118;BME280;59992;47.490;8.736;2023-10-09T04:59:36;97311.79;;;9.33;100.00
72118;BME280;59992;47.490;8.736;2023-10-09T05:02:35;97308.63;;;9.34;100.00
72118;BME280;59992;47.490;8.736;2023-10-09T05:05:27;97305.63;;;9.32;100.00
72118;BME280;59992;47.490;8.736;2023-10-09T05:08:31;97304.80;;;9.32;100.00
72118;BME280;59992;47.490;8.736;2023-10-09T05:11:23;97304.34;;;9.32;100.00
72118;BME280;59992;47.490;8.736;2023-10-09T05:14:42;97298.25;;;9.33;100.00
72118;BME280;59992;47.490;8.736;2023-10-09T05:17:55;97299.95;;;9.35;100.00
72118;BME280;59992;47.490;8.736;2023-10-09T05:20:46;97299.83;;;9.35;100.00
72118;BME280;59992;47.490;8.736;2023-10-09T05:23:49;97299.55;;;9.36;100.00
72118;BME280;59992;47.490;8.736;2023-10-09T05:26:59;97299.05;;;9.37;100.00
72118;BME280;59992;47.490;8.736;2023-10-09T05:30:08;97295.21;;;9.38;100.00
72118;BME280;59992;47.490;8.736;2023-10-09T05:33:18;97299.17;;;9.38;100.00
72118;BME280;59992;47.490;8.736;2023-10-09T05:36:17;97300.60;;;9.38;100.00
72118;BME280;59992;47.490;8.736;2023-10-09T05:39:24;97303.42;;;9.39;100.00
72118;BME280;59992;47.490;8.736;2023-10-09T05:42:31;97299.36;;;9.40;100.00
72118;BME280;59992;47.490;8.736;2023-10-09T05:45:31;97300.37;;;9.41;100.00
72118;BME280;59992;47.490;8.736;2023-10-09T05:48:35;97303.20;;;9.42;100.00
72118;BME280;59992;47.490;8.736;2023-10-09T05:51:58;97297.44;;;9.44;100.00
72118;BME280;59992;47.490;8.736;2023-10-09T05:55:08;97301.08;;;9.44;100.00
72118;BME280;59992;47.490;8.736;2023-10-09T05:58:25;97307.27;;;9.46;100.00
72118;BME280;59992;47.490;8.736;2023-10-09T06:01:29;97309.90;;;9.51;100.00
72118;BME280;59992;47.490;8.736;2023-10-09T06:04:36;97314.98;;;9.59;100.00
72118;BME280;59992;47.490;8.736;2023-10-09T06:07:42;97314.19;;;9.69;100.00
72118;BME280;59992;47.490;8.736;2023-10-09T06:10:52;97318.23;;;9.83;100.00
72118;BME280;59992;47.490;8.736;2023-10-09T06:14:07;97324.52;;;10.00;100.00
72118;BME280;59992;47.490;8.736;2023-10-09T06:17:03;97326.77;;;10.18;100.00
72118;BME280;59992;47.490;8.736;2023-10-09T06:20:15;97326.60;;;10.40;100.00
72118;BME280;59992;47.490;8.736;2023-10-09T06:23:19;97328.25;;;10.75;100.00
72118;BME280;59992;47.490;8.736;2023-10-09T06:26:13;97332.33;;;11.00;99.34
72118;BME280;59992;47.490;8.736;2023-10-09T06:29:14;97335.19;;;11.25;98.03
72118;BME280;59992;47.490;8.736;2023-10-09T06:32:07;97337.81;;;11.61;97.13
72118;BME280;59992;47.490;8.736;2023-10-09T06:35:23;97337.13;;;12.09;95.74
72118;BME280;59992;47.490;8.736;2023-10-09T06:38:19;97338.57;;;12.53;93.40
72118;BME280;59992;47.490;8.736;2023-10-09T06:41:13;97337.69;;;12.94;91.10
72118;BME280;59992;47.490;8.736;2023-10-09T06:44:23;97343.86;;;13.43;91.24
72118;BME280;59992;47.490;8.736;2023-10-09T06:47:29;97340.98;;;13.89;87.58
72118;BME280;59992;47.490;8.736;2023-10-09T06:50:29;97342.00;;;14.35;87.91
72118;BME280;59992;47.490;8.736;2023-10-09T06:53:44;97346.98;;;14.93;88.24
72118;BME280;59992;47.490;8.736;2023-10-09T06:56:54;97347.08;;;15.43;83.18
72118;BME280;59992;47.490;8.736;2023-10-09T07:00:00;97350.70;;;15.88;82.58
72118;BME280;59992;47.490;8.736;2023-10-09T07:03:08;97354.15;;;16.28;80.15
72118;BME280;59992;47.490;8.736;2023-10-09T07:06:08;97354.16;;;16.34;78.54
72118;BME280;59992;47.490;8.736;2023-10-09T07:09:12;97357.56;;;16.22;80.29
72118;BME280;59992;47.490;8.736;2023-10-09T07:12:08;97360.95;;;16.08;79.97
72118;BME280;59992;47.490;8.736;2023-10-09T07:15:04;97359.92;;;16.00;81.89
72118;BME280;59992;47.490;8.736;2023-10-09T07:18:08;97362.40;;;16.06;82.81
72118;BME280;59992;47.490;8.736;2023-10-09T07:21:15;97359.73;;;16.26;80.41
72118;BME280;59992;47.490;8.736;2023-10-09T07:24:17;97374.31;;;16.66;82.48
72118;BME280;59992;47.490;8.736;2023-10-09T07:27:13;97374.36;;;17.01;78.23
72118;BME280;59992;47.490;8.736;2023-10-09T07:30:06;97374.77;;;17.30;79.06
72118;BME280;59992;47.490;8.736;2023-10-09T07:33:17;97375.82;;;17.66;75.58
72118;BME280;59992;47.490;8.736;2023-10-09T07:36:07;97376.61;;;17.90;74.93
72118;BME280;59992;47.490;8.736;2023-10-09T07:39:02;97377.06;;;18.14;74.02
72118;BME280;59992;47.490;8.736;2023-10-09T07:42:05;97373.97;;;18.44;75.80
72118;BME280;59992;47.490;8.736;2023-10-09T07:45:16;97380.66;;;18.82;73.22
72118;BME280;59992;47.490;8.736;2023-10-09T07:48:22;97380.52;;;19.14;70.02
72118;BME280;59992;47.490;8.736;2023-10-09T07:51:14;97386.34;;;19.47;70.50
72118;BME280;59992;47.490;8.736;2023-10-09T07:54:06;97389.92;;;19.66;65.50
72118;BME280;59992;47.490;8.736;2023-10-09T07:56:56;97390.73;;;19.87;66.10
72118;BME280;59992;47.490;8.736;2023-10-09T07:59:57;97388.61;;;20.05;66.22
72118;BME280;59992;47.490;8.736;2023-10-09T08:03:01;97398.27;;;20.24;65.08
72118;BME280;59992;47.490;8.736;2023-10-09T08:05:52;97405.21;;;20.47;65.27
72118;BME280;59992;47.490;8.736;2023-10-09T08:08:55;97405.44;;;20.66;65.99
72118;BME280;59992;47.490;8.736;2023-10-09T08:12:00;97408.06;;;20.83;64.25
72118;BME280;59992;47.490;8.736;2023-10-09T08:15:02;97410.76;;;21.06;64.16
72118;BME280;59992;47.490;8.736;2023-10-09T08:18:14;97408.13;;;21.22;64.07
72118;BME280;59992;47.490;8.736;2023-10-09T08:21:16;97408.62;;;21.35;63.43
72118;BME280;59992;47.490;8.736;2023-10-09T08:24:26;97405.55;;;21.48;61.68
72118;BME280;59992;47.490;8.736;2023-10-09T08:27:30;97402.92;;;21.58;61.37
72118;BME280;59992;47.490;8.736;2023-10-09T08:30:44;97399.92;;;21.66;59.11
72118;BME280;59992;47.490;8.736;2023-10-09T08:33:39;97393.12;;;21.67;56.93
72118;BME280;59992;47.490;8.736;2023-10-09T08:36:31;97404.63;;;21.85;55.87
72118;BME280;59992;47.490;8.736;2023-10-09T08:39:25;97409.33;;;21.94;56.60
72118;BME280;59992;47.490;8.736;2023-10-09T08:42:15;97411.35;;;21.98;56.91
72118;BME280;59992;47.490;8.736;2023-10-09T08:45:07;97413.70;;;21.99;55.94
72118;BME280;59992;47.490;8.736;2023-10-09T08:47:59;97414.18;;;22.03;54.21
72118;BME280;59992;47.490;8.736;2023-10-09T08:50:53;97416.27;;;22.10;53.83
72118;BME280;59992;47.490;8.736;2023-10-09T08:53:45;97417.95;;;22.12;54.28
72118;BME280;59992;47.490;8.736;2023-10-09T08:56:35;97409.05;;;22.05;54.73
72118;BME280;59992;47.490;8.736;2023-10-09T08:59:25;97407.23;;;22.07;53.90
72118;BME280;59992;47.490;8.736;2023-10-09T09:02:15;97399.80;;;22.00;55.72
72118;BME280;59992;47.490;8.736;2023-10-09T09:05:17;97407.48;;;22.06;56.09
72118;BME280;59992;47.490;8.736;2023-10-09T09:08:23;97416.75;;;22.18;57.28
72118;BME280;59992;47.490;8.736;2023-10-09T09:11:17;97418.92;;;22.21;53.30
72118;BME280;59992;47.490;8.736;2023-10-09T09:14:11;97414.28;;;22.29;55.15
72118;BME280;59992;47.490;8.736;2023-10-09T09:17:08;97415.27;;;22.30;52.92
72118;BME280;59992;47.490;8.736;2023-10-09T09:20:00;97408.33;;;22.29;52.80
72118;BME280;59992;47.490;8.736;2023-10-09T09:23:01;97400.86;;;22.41;53.32
72118;BME280;59992;47.490;8.736;2023-10-09T09:25:53;97408.12;;;22.56;52.43
72118;BME280;59992;47.490;8.736;2023-10-09T09:28:54;97405.05;;;22.64;52.97
72118;BME280;59992;47.490;8.736;2023-10-09T09:31:56;97404.90;;;22.74;52.06
72118;BME280;59992;47.490;8.736;2023-10-09T09:34:55;97407.43;;;22.82;51.98
72118;BME280;59992;47.490;8.736;2023-10-09T09:37:54;97404.65;;;22.82;51.15
72118;BME280;59992;47.490;8.736;2023-10-09T09:40:52;97404.61;;;22.83;50.38
72118;BME280;59992;47.490;8.736;2023-10-09T09:43:43;97401.88;;;22.82;50.01
72118;BME280;59992;47.490;8.736;2023-10-09T09:46:35;97401.14;;;22.73;50.04
72118;BME280;59992;47.490;8.736;2023-10-09T09:49:28;97394.98;;;22.71;50.06
72118;BME280;59992;47.490;8.736;2023-10-09T09:52:21;97389.76;;;22.84;51.71
72118;BME280;59992;47.490;8.736;2023-10-09T09:55:13;97390.33;;;23.04;52.50
72118;BME280;59992;47.490;8.736;2023-10-09T09:58:07;97389.23;;;23.11;50.17
72118;BME280;59992;47.490;8.736;2023-10-09T10:01:08;97387.63;;;23.09;49.73
72118;BME280;59992;47.490;8.736;2023-10-09T10:04:07;97387.15;;;23.23;50.64
72118;BME280;59992;47.490;8.736;2023-10-09T10:07:00;97385.83;;;23.41;51.01
72118;BME280;59992;47.490;8.736;2023-10-09T10:09:52;97384.65;;;23.54;50.36
72118;BME280;59992;47.490;8.736;2023-10-09T10:12:52;97385.31;;;23.53;50.33
72118;BME280;59992;47.490;8.736;2023-10-09T10:16:08;97384.27;;;23.51;48.69
72118;BME280;59992;47.490;8.736;2023-10-09T10:19:02;97385.08;;;23.49;49.31
72118;BME280;59992;47.490;8.736;2023-10-09T10:22:25;97389.13;;;23.52;49.90
72118;BME280;59992;47.490;8.736;2023-10-09T10:25:34;97389.30;;;23.60;50.79
72118;BME280;59992;47.490;8.736;2023-10-09T10:28:30;97389.00;;;23.57;49.39
72118;BME280;59992;47.490;8.736;2023-10-09T10:31:52;97383.42;;;23.66;50.46
72118;BME280;59992;47.490;8.736;2023-10-09T10:34:54;97378.55;;;23.75;51.17
72118;BME280;59992;47.490;8.736;2023-10-09T10:37:46;97379.71;;;23.75;50.77
72118;BME280;59992;47.490;8.736;2023-10-09T10:40:39;97376.98;;;23.75;50.44
72118;BME280;59992;47.490;8.736;2023-10-09T10:43:30;97375.56;;;23.79;51.24
72118;BME280;59992;47.490;8.736;2023-10-09T10:46:42;97371.94;;;23.76;49.57
72118;BME280;59992;47.490;8.736;2023-10-09T10:49:33;97367.67;;;23.77;49.93
72118;BME280;59992;47.490;8.736;2023-10-09T10:52:27;97366.38;;;23.82;50.76
72118;BME280;59992;47.490;8.736;2023-10-09T10:55:31;97361.83;;;23.93;51.38
72118;BME280;59992;47.490;8.736;2023-10-09T10:58:38;97360.16;;;23.88;49.33
72118;BME280;59992;47.490;8.736;2023-10-09T11:01:36;97357.39;;;23.96;50.43
72118;BME280;59992;47.490;8.736;2023-10-09T11:04:45;97352.20;;;24.03;49.38
72118;BME280;59992;47.490;8.736;2023-10-09T11:07:42;97349.38;;;24.13;49.59
72118;BME280;59992;47.490;8.736;2023-10-09T11:10:32;97347.51;;;24.27;50.06
72118;BME280;59992;47.490;8.736;2023-10-09T11:13:26;97337.91;;;24.32;48.69
72118;BME280;59992;47.490;8.736;2023-10-09T11:16:24;97339.80;;;24.38;48.39
72118;BME280;59992;47.490;8.736;2023-10-09T11:19:30;97346.63;;;24.40;47.88
72118;BME280;59992;47.490;8.736;2023-10-09T11:22:29;97352.71;;;24.53;47.25
72118;BME280;59992;47.490;8.736;2023-10-09T11:25:25;97345.55;;;24.61;47.94
72118;BME280;59992;47.490;8.736;2023-10-09T11:28:19;97347.65;;;24.66;47.79
72118;BME280;59992;47.490;8.736;2023-10-09T11:31:31;97346.17;;;24.85;49.05
72118;BME280;59992;47.490;8.736;2023-10-09T11:34:22;97345.31;;;24.88;47.64
72118;BME280;59992;47.490;8.736;2023-10-09T11:37:22;97344.34;;;24.99;48.71
72118;BME280;59992;47.490;8.736;2023-10-09T11:40:31;97342.84;;;24.93;47.23
72118;BME280;59992;47.490;8.736;2023-10-09T11:43:49;97333.77;;;24.95;48.93
72118;BME280;59992;47.490;8.736;2023-10-09T11:46:58;97334.84;;;25.00;47.86
72118;BME280;59992;47.490;8.736;2023-10-09T11:50:03;97334.61;;;25.02;48.89
72118;BME280;59992;47.490;8.736;2023-10-09T11:53:01;97331.89;;;24.93;47.73
72118;BME280;59992;47.490;8.736;2023-10-09T11:56:24;97325.27;;;24.92;48.51
72118;BME280;59992;47.490;8.736;2023-10-09T11:59:16;97321.14;;;24.90;47.97
72118;BME280;59992;47.490;8.736;2023-10-09T12:02:07;97315.49;;;24.85;47.96
72118;BME280;59992;47.490;8.736;2023-10-09T12:05:00;97312.02;;;24.77;48.12
72118;BME280;59992;47.490;8.736;2023-10-09T12:07:50;97306.89;;;24.72;47.78
72118;BME280;59992;47.490;8.736;2023-10-09T12:10:44;97305.82;;;24.74;47.60
72118;BME280;59992;47.490;8.736;2023-10-09T12:13:39;97305.59;;;24.77;47.86
72118;BME280;59992;47.490;8.736;2023-10-09T12:16:31;97305.77;;;24.78;48.11
72118;BME280;59992;47.490;8.736;2023-10-09T12:19:23;97302.71;;;24.80;49.15
72118;BME280;59992;47.490;8.736;2023-10-09T12:22:13;97302.98;;;24.85;49.44
72118;BME280;59992;47.490;8.736;2023-10-09T12:25:06;97299.93;;;24.91;50.92
72118;BME280;59992;47.490;8.736;2023-10-09T12:27:58;97296.05;;;24.92;51.35
72118;BME280;59992;47.490;8.736;2023-10-09T12:30:50;97294.27;;;24.84;50.93
72118;BME280;59992;47.490;8.736;2023-10-09T12:33:41;97286.96;;;24.67;49.84
72118;BME280;59992;47.490;8.736;2023-10-09T12:36:31;97281.77;;;24.60;49.46
72118;BME280;59992;47.490;8.736;2023-10-09T12:39:26;97283.63;;;24.55;52.78
72118;BME280;59992;47.490;8.736;2023-10-09T12:42:22;97284.09;;;24.48;52.12
72118;BME280;59992;47.490;8.736;2023-10-09T12:45:12;97283.88;;;24.34;51.56
72118;BME280;59992;47.490;8.736;2023-10-09T12:48:02;97276.86;;;24.28;53.40
72118;BME280;59992;47.490;8.736;2023-10-09T12:50:58;97272.34;;;24.21;54.28
72118;BME280;59992;47.490;8.736;2023-10-09T12:53:55;97270.57;;;24.10;55.17
72118;BME280;59992;47.490;8.736;2023-10-09T12:56:47;97269.55;;;24.03;54.11
72118;BME280;59992;47.490;8.736;2023-10-09T12:59:39;97271.58;;;24.02;55.63
72118;BME280;59992;47.490;8.736;2023-10-09T13:02:34;97270.72;;;24.03;56.33
72118;BME280;59992;47.490;8.736;2023-10-09T13:05:24;97270.35;;;23.98;57.47
72118;BME280;59992;47.490;8.736;2023-10-09T13:08:15;97263.95;;;23.89;58.02
72118;BME280;59992;47.490;8.736;2023-10-09T13:11:09;97264.79;;;23.82;58.98
72118;BME280;59992;47.490;8.736;2023-10-09T13:14:00;97261.69;;;23.71;58.99
72118;BME280;59992;47.490;8.736;2023-10-09T13:17:00;97260.77;;;23.54;59.59
72118;BME280;59992;47.490;8.736;2023-10-09T13:19:57;97253.08;;;23.35;60.94
72118;BME280;59992;47.490;8.736;2023-10-09T13:22:47;97243.73;;;23.19;61.53
72118;BME280;59992;47.490;8.736;2023-10-09T13:25:37;97243.48;;;23.11;62.32
72118;BME280;59992;47.490;8.736;2023-10-09T13:28:28;97238.92;;;23.04;62.43
72118;BME280;59992;47.490;8.736;2023-10-09T13:31:19;97238.84;;;22.98;62.53
72118;BME280;59992;47.490;8.736;2023-10-09T13:34:10;97237.13;;;22.90;63.57
72118;BME280;59992;47.490;8.736;2023-10-09T13:37:04;97235.78;;;22.82;63.97
72118;BME280;59992;47.490;8.736;2023-10-09T13:40:00;97239.84;;;22.77;64.13
72118;BME280;59992;47.490;8.736;2023-10-09T13:42:58;97231.16;;;22.72;64.53
72118;BME280;59992;47.490;8.736;2023-10-09T13:45:48;97228.25;;;22.68;65.23
72118;BME280;59992;47.490;8.736;2023-10-09T13:48:40;97228.41;;;22.61;65.09
72118;BME280;59992;47.490;8.736;2023-10-09T13:51:32;97223.69;;;22.58;65.55
72118;BME280;59992;47.490;8.736;2023-10-09T13:54:22;97219.46;;;22.53;66.53
72118;BME280;59992;47.490;8.736;2023-10-09T13:57:17;97220.91;;;22.40;66.52
72118;BME280;59992;47.490;8.736;2023-10-09T14:00:13;97216.09;;;22.28;67.36
72118;BME280;59992;47.490;8.736;2023-10-09T14:03:06;97211.11;;;22.20;67.06
72118;BME280;59992;47.490;8.736;2023-10-09T14:06:01;97211.05;;;22.16;67.30
72118;BME280;59992;47.490;8.736;2023-10-09T14:09:00;97206.57;;;22.09;68.63
72118;BME280;59992;47.490;8.736;2023-10-09T14:11:53;97205.02;;;22.03;68.43
72118;BME280;59992;47.490;8.736;2023-10-09T14:14:43;97203.10;;;21.96;68.27
72118;BME280;59992;47.490;8.736;2023-10-09T14:17:36;97200.39;;;21.88;69.21
72118;BME280;59992;47.490;8.736;2023-10-09T14:20:31;97197.42;;;21.87;69.31
72118;BME280;59992;47.490;8.736;2023-10-09T14:23:21;97189.58;;;21.86;68.58
72118;BME280;59992;47.490;8.736;2023-10-09T14:26:13;97189.84;;;21.84;68.51
72118;BME280;59992;47.490;8.736;2023-10-09T14:29:03;97186.50;;;21.82;68.99
72118;BME280;59992;47.490;8.736;2023-10-09T14:31:55;97186.67;;;21.79;68.95
72118;BME280;59992;47.490;8.736;2023-10-09T14:34:49;97183.88;;;21.82;69.31
72118;BME280;59992;47.490;8.736;2023-10-09T14:37:40;97182.63;;;21.83;69.17
72118;BME280;59992;47.490;8.736;2023-10-09T14:40:30;97179.37;;;21.84;69.62
72118;BME280;59992;47.490;8.736;2023-10-09T14:43:21;97174.41;;;21.80;69.26
72118;BME280;59992;47.490;8.736;2023-10-09T14:46:16;97175.84;;;21.78;69.78
72118;BME280;59992;47.490;8.736;2023-10-09T14:49:12;97171.97;;;21.75;69.62
72118;BME280;59992;47.490;8.736;2023-10-09T14:52:03;97170.66;;;21.71;69.71
72118;BME280;59992;47.490;8.736;2023-10-09T14:54:55;97172.09;;;21.69;69.99
72118;BME280;59992;47.490;8.736;2023-10-09T14:57:48;97172.02;;;21.70;69.36
72118;BME280;59992;47.490;8.736;2023-10-09T15:00:38;97169.69;;;21.70;69.71
72118;BME280;59992;47.490;8.736;2023-10-09T15:03:35;97166.73;;;21.68;69.10
72118;BME280;59992;47.490;8.736;2023-10-09T15:06:26;97167.45;;;21.67;69.23
72118;BME280;59992;47.490;8.736;2023-10-09T15:09:19;97165.56;;;21.64;69.53
72118;BME280;59992;47.490;8.736;2023-10-09T15:12:12;97168.45;;;21.63;69.41
72118;BME280;59992;47.490;8.736;2023-10-09T15:15:02;97161.32;;;21.61;69.32
72118;BME280;59992;47.490;8.736;2023-10-09T15:17:53;97165.60;;;21.59;69.03
72118;BME280;59992;47.490;8.736;2023-10-09T15:20:43;97163.10;;;21.57;69.11
72118;BME280;59992;47.490;8.736;2023-10-09T15:23:34;97161.36;;;21.51;69.41
72118;BME280;59992;47.490;8.736;2023-10-09T15:26:25;97163.77;;;21.43;69.81
72118;BME280;59992;47.490;8.736;2023-10-09T15:29:21;97160.48;;;21.37;70.22
72118;BME280;59992;47.490;8.736;2023-10-09T15:32:12;97162.88;;;21.29;70.93
72118;BME280;59992;47.490;8.736;2023-10-09T15:35:05;97163.73;;;21.18;71.07
72118;BME280;59992;47.490;8.736;2023-10-09T15:37:58;97163.06;;;21.08;70.50